createdAt,value
2018-03-22T00:02:05.911Z,4.10
2018-03-22T00:04:33.486Z,4.09
2018-03-22T00:07:01.244Z,4.09
2018-03-22T00:09:28.884Z,4.11
2018-03-22T00:11:56.546Z,4.10
2018-03-22T00:14:24.137Z,4.13
2018-03-22T00:16:51.986Z,4.11
2018-03-22T00:19:19.672Z,4.10
2018-03-22T00:21:47.255Z,4.10
2018-03-22T00:24:14.910Z,4.13
2018-03-22T00:26:42.487Z,4.12
2018-03-22T00:29:10.105Z,4.11
2018-03-22T00:31:37.733Z,4.10
2018-03-22T00:34:05.303Z,4.08
2018-03-22T00:36:33.003Z,4.10
2018-03-22T00:39:00.560Z,4.13
2018-03-22T00:41:28.650Z,4.10
2018-03-22T00:43:56.267Z,4.15
2018-03-22T00:46:23.858Z,4.14
2018-03-22T00:48:51.483Z,4.18
2018-03-22T00:51:19.128Z,4.14
2018-03-22T00:53:46.794Z,4.15
2018-03-22T00:56:14.364Z,4.12
2018-03-22T00:58:42.030Z,4.13
2018-03-22T01:01:09.609Z,4.14
2018-03-22T01:03:37.185Z,4.17
2018-03-22T01:06:04.820Z,4.20
2018-03-22T01:08:32.478Z,4.21
2018-03-22T01:11:00.115Z,4.18
2018-03-22T01:13:27.693Z,4.22
2018-03-22T01:15:55.557Z,4.25
2018-03-22T01:18:23.192Z,4.24
2018-03-22T01:20:50.793Z,4.25
2018-03-22T01:23:18.388Z,4.24
2018-03-22T01:25:46.253Z,4.26
2018-03-22T01:28:13.855Z,4.23
2018-03-22T01:30:42.401Z,4.21
2018-03-22T01:33:10.090Z,4.21
2018-03-22T01:35:37.705Z,4.16
2018-03-22T01:38:05.263Z,4.16
2018-03-22T01:40:32.905Z,4.16
2018-03-22T01:43:00.561Z,4.10
2018-03-22T01:45:28.266Z,4.12
2018-03-22T01:47:55.885Z,4.14
2018-03-22T01:50:23.435Z,4.11
2018-03-22T01:53:02.922Z,4.09
2018-03-22T01:55:30.487Z,4.05
2018-03-22T01:57:58.129Z,4.06
2018-03-22T02:00:25.709Z,4.04
2018-03-22T02:02:57.896Z,4.01
2018-03-22T02:05:25.535Z,4.03
2018-03-22T02:07:53.187Z,4.02
2018-03-22T02:10:20.760Z,3.98
2018-03-22T02:12:48.800Z,3.98
2018-03-22T02:15:16.510Z,3.97
2018-03-22T02:17:44.276Z,3.96
2018-03-22T02:20:12.112Z,4.01
2018-03-22T02:22:39.716Z,4.00
2018-03-22T02:25:07.368Z,4.00
2018-03-22T02:27:35.013Z,4.00
2018-03-22T02:30:02.568Z,4.02
2018-03-22T02:32:30.122Z,4.03
2018-03-22T02:34:57.730Z,4.05
2018-03-22T02:37:25.371Z,4.05
2018-03-22T02:39:53.016Z,4.06
2018-03-22T02:42:20.612Z,4.04
2018-03-22T02:44:48.488Z,4.04
2018-03-22T02:47:16.148Z,4.06
2018-03-22T02:49:43.839Z,4.10
2018-03-22T02:52:11.458Z,4.07
2018-03-22T02:54:39.114Z,4.11
2018-03-22T02:57:06.751Z,4.12
2018-03-22T02:59:34.704Z,4.13
2018-03-22T03:02:02.281Z,4.14
2018-03-22T03:04:30.221Z,4.16
2018-03-22T03:06:57.776Z,4.18
2018-03-22T03:09:25.615Z,4.19
2018-03-22T03:11:53.265Z,4.18
2018-03-22T03:14:21.214Z,4.22
2018-03-22T03:16:48.894Z,4.24
2018-03-22T03:19:16.566Z,4.23
2018-03-22T03:21:44.195Z,4.24
2018-03-22T03:24:11.810Z,4.28
2018-03-22T03:26:39.411Z,4.27
2018-03-22T03:29:06.987Z,4.28
2018-03-22T03:31:34.647Z,4.29
2018-03-22T03:34:02.231Z,4.29
2018-03-22T03:36:29.873Z,4.32
2018-03-22T03:38:57.458Z,4.37
2018-03-22T03:41:25.098Z,4.39
2018-03-22T03:43:52.698Z,4.39
2018-03-22T03:46:20.355Z,4.40
2018-03-22T03:48:48.000Z,4.39
2018-03-22T03:51:16.016Z,4.40
2018-03-22T03:53:43.984Z,4.44
2018-03-22T03:56:11.610Z,4.44
2018-03-22T03:58:39.235Z,4.47
2018-03-22T04:01:07.047Z,4.45
2018-03-22T04:03:34.785Z,4.52
2018-03-22T04:06:02.359Z,4.48
2018-03-22T04:08:29.993Z,4.52
2018-03-22T04:10:57.597Z,4.52
2018-03-22T04:13:25.211Z,4.59
2018-03-22T04:15:53.164Z,4.59
2018-03-22T04:18:20.806Z,4.58
2018-03-22T04:20:48.376Z,4.60
2018-03-22T04:23:16.181Z,4.67
2018-03-22T04:25:44.217Z,4.68
2018-03-22T04:28:11.886Z,4.66
2018-03-22T04:30:39.479Z,4.69
2018-03-22T04:33:07.107Z,4.75
2018-03-22T04:35:34.712Z,4.70
2018-03-22T04:38:02.293Z,4.71
2018-03-22T04:40:29.939Z,4.73
2018-03-22T04:42:57.488Z,4.73
2018-03-22T04:45:25.517Z,4.72
2018-03-22T04:47:53.128Z,4.74
2018-03-22T04:50:20.744Z,4.74
2018-03-22T04:52:48.439Z,4.75
2018-03-22T04:55:16.011Z,4.73
2018-03-22T04:57:43.596Z,4.74
2018-03-22T05:00:11.213Z,4.75
2018-03-22T05:02:38.802Z,4.73
2018-03-22T05:05:06.436Z,4.80
2018-03-22T05:07:34.062Z,4.75
2018-03-22T05:10:01.925Z,4.78
2018-03-22T05:12:29.531Z,4.80
2018-03-22T05:14:57.145Z,4.84
2018-03-22T05:17:24.763Z,4.82
2018-03-22T05:19:52.560Z,4.83
2018-03-22T05:22:20.445Z,4.80
2018-03-22T05:24:48.068Z,4.83
2018-03-22T05:27:15.690Z,4.83
2018-03-22T05:29:43.345Z,4.85
2018-03-22T05:32:10.967Z,4.86
2018-03-22T05:34:38.753Z,4.87
2018-03-22T05:37:06.437Z,4.85
2018-03-22T05:39:34.093Z,4.80
2018-03-22T05:42:02.057Z,4.85
2018-03-22T05:44:29.660Z,4.84
2018-03-22T05:46:57.238Z,4.89
2018-03-22T05:49:24.847Z,4.89
2018-03-22T05:51:52.788Z,4.92
2018-03-22T05:54:20.339Z,4.93
2018-03-22T05:56:47.982Z,4.95
2018-03-22T05:59:15.574Z,4.93
2018-03-22T06:01:43.209Z,4.96
2018-03-22T06:04:10.811Z,4.98
2018-03-22T06:06:38.411Z,5.01
2018-03-22T06:09:06.041Z,5.04
2018-03-22T06:11:33.672Z,5.05
2018-03-22T06:14:01.556Z,5.07
2018-03-22T06:16:29.193Z,5.07
2018-03-22T06:18:56.769Z,5.11
2018-03-22T06:21:24.391Z,5.12
2018-03-22T06:23:52.097Z,5.10
2018-03-22T06:26:19.655Z,5.11
2018-03-22T06:28:47.253Z,5.16
2018-03-22T06:31:15.097Z,5.19
2018-03-22T06:33:42.686Z,5.19
2018-03-22T06:36:10.297Z,5.23
2018-03-22T06:38:37.858Z,5.22
2018-03-22T06:41:05.468Z,5.25
2018-03-22T06:43:33.084Z,5.26
2018-03-22T06:46:00.677Z,5.28
2018-03-22T06:48:28.328Z,5.31
2018-03-22T06:50:56.202Z,5.32
2018-03-22T06:53:23.811Z,5.36
2018-03-22T06:55:51.449Z,5.38
2018-03-22T06:58:19.022Z,5.38
2018-03-22T07:00:46.648Z,5.37
2018-03-22T07:03:14.597Z,5.42
2018-03-22T07:05:42.249Z,5.44
2018-03-22T07:08:09.798Z,5.45
2018-03-22T07:10:37.498Z,5.44
2018-03-22T07:13:05.184Z,5.46
2018-03-22T07:15:32.876Z,5.46
2018-03-22T07:18:00.550Z,5.50
2018-03-22T07:20:28.442Z,5.52
2018-03-22T07:22:56.070Z,5.52
2018-03-22T07:25:23.659Z,5.56
2018-03-22T07:27:51.472Z,5.59
2018-03-22T07:30:19.095Z,5.62
2018-03-22T07:32:46.726Z,5.63
2018-03-22T07:35:14.359Z,5.65
2018-03-22T07:37:42.272Z,5.72
2018-03-22T07:40:10.154Z,5.71
2018-03-22T07:42:37.710Z,5.74
2018-03-22T07:45:10.402Z,5.80
2018-03-22T07:47:38.037Z,5.83
2018-03-22T07:50:05.697Z,5.87
2018-03-22T07:52:33.385Z,5.88
2018-03-22T07:55:01.020Z,5.93
2018-03-22T07:57:28.859Z,5.96
2018-03-22T07:59:56.481Z,6.01
2018-03-22T08:02:24.091Z,6.00
2018-03-22T08:04:51.704Z,6.02
2018-03-22T08:07:19.377Z,6.08
2018-03-22T08:09:46.980Z,6.09
2018-03-22T08:12:14.626Z,6.11
2018-03-22T08:14:42.277Z,6.16
2018-03-22T08:17:09.866Z,6.18
2018-03-22T08:19:37.516Z,6.21
2018-03-22T08:22:05.131Z,6.27
2018-03-22T08:24:32.744Z,6.35
2018-03-22T08:27:00.766Z,6.38
2018-03-22T08:29:28.627Z,6.46
2018-03-22T08:31:56.275Z,6.47
2018-03-22T08:34:23.857Z,6.52
2018-03-22T08:36:51.486Z,6.57
2018-03-22T08:39:19.230Z,6.61
2018-03-22T08:41:46.796Z,6.63
2018-03-22T08:44:14.378Z,6.69
2018-03-22T08:46:42.097Z,6.75
2018-03-22T08:49:09.980Z,6.84
2018-03-22T08:51:37.574Z,6.90
2018-03-22T08:54:05.240Z,7.01
2018-03-22T08:56:32.904Z,7.07
2018-03-22T08:59:00.742Z,7.13
2018-03-22T09:01:28.351Z,7.20
2018-03-22T09:03:56.116Z,7.23
2018-03-22T09:06:23.691Z,7.30
2018-03-22T09:08:51.364Z,7.38
2018-03-22T09:11:19.018Z,7.48
2018-03-22T09:13:47.458Z,7.55
2018-03-22T09:16:15.133Z,7.59
2018-03-22T09:18:42.855Z,7.66
2018-03-22T09:21:10.431Z,7.68
2018-03-22T09:23:38.023Z,7.71
2018-03-22T09:26:05.681Z,7.75
2018-03-22T09:28:33.409Z,7.81
2018-03-22T09:31:01.002Z,7.91
2018-03-22T09:33:28.560Z,7.97
2018-03-22T09:35:56.256Z,7.97
2018-03-22T09:38:23.817Z,8.04
2018-03-22T09:40:51.654Z,8.14
2018-03-22T09:43:19.282Z,8.17
2018-03-22T09:45:46.846Z,8.26
2018-03-22T09:48:14.525Z,8.34
2018-03-22T09:50:42.179Z,8.44
2018-03-22T09:53:09.821Z,8.56
2018-03-22T09:55:37.400Z,8.61
2018-03-22T09:58:05.407Z,8.70
2018-03-22T10:00:33.021Z,8.69
2018-03-22T10:03:00.587Z,8.72
2018-03-22T10:05:28.186Z,8.72
2018-03-22T10:07:55.736Z,8.73
2018-03-22T10:10:23.446Z,8.70
2018-03-22T10:12:51.265Z,8.68
2018-03-22T10:15:18.844Z,8.67
2018-03-22T10:17:46.452Z,8.68
2018-03-22T10:20:14.102Z,8.68
2018-03-22T10:22:41.759Z,8.71
2018-03-22T10:25:09.448Z,8.67
2018-03-22T10:27:37.336Z,8.67
2018-03-22T10:30:04.906Z,8.68
2018-03-22T10:32:33.020Z,8.75
2018-03-22T10:35:00.656Z,8.77
2018-03-22T10:37:28.334Z,8.79
2018-03-22T10:39:56.363Z,8.74
2018-03-22T10:42:24.026Z,8.73
2018-03-22T10:44:51.680Z,8.77
2018-03-22T10:47:19.656Z,8.73
2018-03-22T10:49:47.310Z,8.79
2018-03-22T10:52:14.966Z,8.75
2018-03-22T10:54:42.677Z,8.75
2018-03-22T10:57:10.346Z,8.76
2018-03-22T10:59:38.047Z,8.84
2018-03-22T11:02:05.870Z,8.85
2018-03-22T11:04:33.518Z,8.80
2018-03-22T11:07:01.342Z,8.85
2018-03-22T11:09:28.935Z,8.91
2018-03-22T11:11:56.620Z,8.91
2018-03-22T11:14:24.171Z,8.88
2018-03-22T11:16:51.820Z,8.87
2018-03-22T11:19:19.419Z,8.94
2018-03-22T11:21:47.123Z,8.94
2018-03-22T11:24:14.895Z,8.97
2018-03-22T11:26:42.573Z,8.90
2018-03-22T11:29:10.146Z,8.88
2018-03-22T11:31:37.777Z,8.95
2018-03-22T11:34:05.379Z,8.97
2018-03-22T11:36:32.979Z,8.91
2018-03-22T11:39:00.874Z,8.90
2018-03-22T11:41:28.506Z,8.89
2018-03-22T11:43:56.089Z,8.97
2018-03-22T11:46:23.675Z,8.93
2018-03-22T11:48:51.424Z,8.88
2018-03-22T11:51:18.977Z,8.93
2018-03-22T11:53:46.635Z,9.00
2018-03-22T11:56:14.226Z,9.06
2018-03-22T11:58:42.065Z,9.12
2018-03-22T12:01:09.723Z,9.15
2018-03-22T12:03:37.386Z,9.11
2018-03-22T12:06:04.972Z,9.18
2018-03-22T12:08:32.579Z,9.25
2018-03-22T12:11:00.638Z,9.23
2018-03-22T12:13:29.174Z,9.18
2018-03-22T12:15:57.109Z,9.10
2018-03-22T12:18:24.763Z,9.00
2018-03-22T12:20:52.624Z,9.03
2018-03-22T12:23:20.225Z,9.07
2018-03-22T12:25:48.000Z,8.95
2018-03-22T12:28:15.615Z,8.97
2018-03-22T12:30:43.222Z,8.93
2018-03-22T12:33:10.869Z,8.91
2018-03-22T12:35:38.433Z,8.93
2018-03-22T12:38:06.038Z,9.03
2018-03-22T12:40:33.639Z,9.00
2018-03-22T12:43:01.240Z,8.93
2018-03-22T12:45:28.818Z,8.93
2018-03-22T12:47:56.371Z,9.02
2018-03-22T12:50:23.973Z,9.05
2018-03-22T12:52:51.646Z,9.10
2018-03-22T12:55:19.255Z,8.98
2018-03-22T12:57:46.917Z,9.04
2018-03-22T13:00:14.482Z,9.09
2018-03-22T13:02:42.163Z,9.12
2018-03-22T13:05:09.834Z,9.07
2018-03-22T13:07:37.736Z,8.98
2018-03-22T13:10:05.349Z,8.96
2018-03-22T13:12:33.092Z,8.95
2018-03-22T13:15:00.718Z,8.94
2018-03-22T13:17:28.279Z,8.95
2018-03-22T13:19:56.154Z,8.90
2018-03-22T13:22:24.505Z,8.93
2018-03-22T13:24:52.320Z,8.87
2018-03-22T13:27:20.137Z,8.90
2018-03-22T13:29:47.750Z,8.85
2018-03-22T13:32:15.292Z,8.82
2018-03-22T13:34:42.914Z,8.91
2018-03-22T13:37:10.592Z,8.92
2018-03-22T13:39:38.196Z,8.97
2018-03-22T13:42:05.797Z,8.93
2018-03-22T13:44:33.401Z,8.94
2018-03-22T13:47:01.025Z,8.87
2018-03-22T13:49:28.621Z,8.80
2018-03-22T13:51:56.193Z,8.79
2018-03-22T13:54:23.819Z,8.70
2018-03-22T13:56:51.505Z,8.68
2018-03-22T13:59:19.185Z,8.66
2018-03-22T14:01:46.809Z,8.63
2018-03-22T14:04:14.488Z,8.61
2018-03-22T14:06:42.069Z,8.54
2018-03-22T14:09:09.729Z,8.59
2018-03-22T14:11:37.317Z,8.61
2018-03-22T14:14:04.932Z,8.65
2018-03-22T14:16:32.642Z,8.68
2018-03-22T14:19:00.293Z,8.72
2018-03-22T14:21:27.880Z,8.77
2018-03-22T14:23:55.585Z,8.72
2018-03-22T14:26:23.157Z,8.75
2018-03-22T14:28:50.751Z,8.74
2018-03-22T14:31:18.429Z,8.80
2018-03-22T14:33:46.067Z,8.74
2018-03-22T14:36:13.649Z,8.67
2018-03-22T14:38:41.304Z,8.70
2018-03-22T14:41:08.883Z,8.74
2018-03-22T14:43:36.441Z,8.75
2018-03-22T14:46:04.098Z,8.78
2018-03-22T14:48:31.697Z,8.79
2018-03-22T14:50:59.274Z,8.79
2018-03-22T14:53:26.875Z,8.73
2018-03-22T14:55:54.774Z,8.75
2018-03-22T14:58:22.394Z,8.78
2018-03-22T15:00:49.952Z,8.76
2018-03-22T15:03:17.641Z,8.82
2018-03-22T15:05:45.473Z,8.82
2018-03-22T15:08:13.065Z,8.83
2018-03-22T15:10:40.747Z,8.78
2018-03-22T15:13:08.302Z,8.78
2018-03-22T15:15:35.952Z,8.79
2018-03-22T15:18:03.624Z,8.77
2018-03-22T15:20:31.187Z,8.73
2018-03-22T15:22:58.766Z,8.69
2018-03-22T15:25:26.374Z,8.65
2018-03-22T15:27:54.027Z,8.63
2018-03-22T15:30:21.624Z,8.52
2018-03-22T15:32:49.211Z,8.49
2018-03-22T15:35:16.831Z,8.47
2018-03-22T15:37:44.591Z,8.48
2018-03-22T15:40:12.169Z,8.47
2018-03-22T15:42:40.163Z,8.47
2018-03-22T15:45:08.104Z,8.41
2018-03-22T15:47:35.681Z,8.41
2018-03-22T15:50:03.542Z,8.41
2018-03-22T15:52:31.155Z,8.35
2018-03-22T15:54:58.795Z,8.36
2018-03-22T15:57:26.549Z,8.34
2018-03-22T15:59:54.174Z,8.36
2018-03-22T16:02:21.814Z,8.36
2018-03-22T16:04:49.530Z,8.28
2018-03-22T16:07:17.157Z,8.27
2018-03-22T16:09:44.771Z,8.26
2018-03-22T16:12:12.485Z,8.23
2018-03-22T16:14:40.082Z,8.26
2018-03-22T16:17:07.687Z,8.21
2018-03-22T16:19:35.321Z,8.22
2018-03-22T16:22:03.013Z,8.20
2018-03-22T16:24:30.935Z,8.21
2018-03-22T16:26:58.684Z,8.14
2018-03-22T16:29:26.355Z,8.13
2018-03-22T16:31:54.177Z,8.09
2018-03-22T16:34:21.795Z,8.04
2018-03-22T16:36:49.464Z,8.02
2018-03-22T16:39:17.125Z,8.01
2018-03-22T16:41:44.842Z,7.99
2018-03-22T16:44:12.471Z,7.95
2018-03-22T16:46:40.086Z,8.02
2018-03-22T16:49:07.757Z,7.95
2018-03-22T16:51:35.578Z,7.90
2018-03-22T16:54:03.185Z,7.84
2018-03-22T16:56:30.817Z,7.81
2018-03-22T16:58:58.421Z,7.88
2018-03-22T17:01:26.045Z,7.89
2018-03-22T17:03:53.672Z,7.89
2018-03-22T17:06:21.359Z,7.88
2018-03-22T17:08:48.940Z,7.79
2018-03-22T17:11:16.572Z,7.83
2018-03-22T17:13:44.584Z,7.78
2018-03-22T17:16:12.224Z,7.78
2018-03-22T17:18:39.861Z,7.75
2018-03-22T17:21:07.442Z,7.67
2018-03-22T17:23:35.325Z,7.64
2018-03-22T17:26:02.988Z,7.61
2018-03-22T17:28:30.644Z,7.58
2018-03-22T17:30:58.241Z,7.53
2018-03-22T17:33:25.909Z,7.55
2018-03-22T17:35:53.468Z,7.56
2018-03-22T17:38:21.065Z,7.56
2018-03-22T17:40:48.808Z,7.57
2018-03-22T17:43:16.387Z,7.57
2018-03-22T17:45:44.065Z,7.55
2018-03-22T17:48:11.792Z,7.54
2018-03-22T17:50:39.351Z,7.55
2018-03-22T17:53:06.910Z,7.50
2018-03-22T17:55:34.545Z,7.47
2018-03-22T17:58:02.213Z,7.44
2018-03-22T18:00:29.811Z,7.45
2018-03-22T18:02:57.540Z,7.40
2018-03-22T18:05:25.133Z,7.40
2018-03-22T18:07:52.757Z,7.35
2018-03-22T18:10:20.426Z,7.34
2018-03-22T18:12:48.284Z,7.32
2018-03-22T18:15:17.077Z,7.28
2018-03-22T18:17:45.129Z,7.27
2018-03-22T18:20:13.219Z,7.27
2018-03-22T18:22:40.889Z,7.26
2018-03-22T18:25:09.217Z,7.27
2018-03-22T18:27:36.819Z,7.23
2018-03-22T18:30:04.525Z,7.19
2018-03-22T18:32:32.190Z,7.22
2018-03-22T18:34:59.842Z,7.13
2018-03-22T18:37:27.622Z,7.09
2018-03-22T18:39:55.544Z,7.04
2018-03-22T18:42:23.179Z,7.08
2018-03-22T18:44:50.827Z,7.02
2018-03-22T18:47:18.429Z,7.01
2018-03-22T18:49:46.246Z,7.00
2018-03-22T18:52:14.162Z,6.92
2018-03-22T18:54:41.988Z,6.84
2018-03-22T18:57:09.649Z,6.85
2018-03-22T18:59:37.531Z,6.79
2018-03-22T19:02:05.128Z,6.77
2018-03-22T19:04:32.788Z,6.73
2018-03-22T19:07:00.691Z,6.69
2018-03-22T19:09:28.292Z,6.68
2018-03-22T19:11:55.882Z,6.67
2018-03-22T19:14:23.518Z,6.67
2018-03-22T19:16:51.118Z,6.69
2018-03-22T19:19:18.882Z,6.69
2018-03-22T19:21:46.601Z,6.69
2018-03-22T19:24:14.245Z,6.68
2018-03-22T19:26:41.987Z,6.68
2018-03-22T19:29:09.648Z,6.69
2018-03-22T19:31:37.253Z,6.70
2018-03-22T19:34:04.858Z,6.70
2018-03-22T19:36:32.778Z,6.69
2018-03-22T19:39:00.468Z,6.71
2018-03-22T19:41:28.329Z,6.71
2018-03-22T19:43:55.894Z,6.72
2018-03-22T19:46:23.622Z,6.72
2018-03-22T19:48:51.524Z,6.74
2018-03-22T19:51:19.120Z,6.74
2018-03-22T19:53:46.787Z,6.77
2018-03-22T19:56:14.373Z,6.74
2018-03-22T19:58:42.049Z,6.76
2018-03-22T20:01:10.511Z,6.71
2018-03-22T20:03:38.413Z,6.69
2018-03-22T20:06:06.464Z,6.66
2018-03-22T20:08:34.136Z,6.59
2018-03-22T20:11:01.778Z,6.59
2018-03-22T20:13:29.486Z,6.59
2018-03-22T20:15:57.070Z,6.60
2018-03-22T20:18:24.725Z,6.57
2018-03-22T20:20:52.399Z,6.57
2018-03-22T20:23:20.003Z,6.54
2018-03-22T20:25:47.695Z,6.54
2018-03-22T20:28:15.501Z,6.55
2018-03-22T20:30:43.139Z,6.54
2018-03-22T20:33:10.727Z,6.52
2018-03-22T20:35:38.493Z,6.52
2018-03-22T20:38:06.122Z,6.57
2018-03-22T20:40:33.802Z,6.53
2018-03-22T20:43:02.260Z,6.51
2018-03-22T20:45:29.847Z,6.50
2018-03-22T20:47:57.447Z,6.51
2018-03-22T20:50:25.416Z,6.55
2018-03-22T20:52:53.260Z,6.57
2018-03-22T20:55:20.851Z,6.59
2018-03-22T20:57:48.469Z,6.61
2018-03-22T21:00:16.221Z,6.63
2018-03-22T21:02:43.914Z,6.64
2018-03-22T21:05:11.509Z,6.65
2018-03-22T21:07:39.153Z,6.66
2018-03-22T21:10:06.741Z,6.68
2018-03-22T21:12:34.327Z,6.69
2018-03-22T21:15:01.970Z,6.68
2018-03-22T21:17:29.549Z,6.69
2018-03-22T21:19:57.184Z,6.70
2018-03-22T21:22:24.864Z,6.70
2018-03-22T21:24:52.465Z,6.73
2018-03-22T21:27:20.100Z,6.72
2018-03-22T21:29:47.881Z,6.72
2018-03-22T21:32:15.466Z,6.73
2018-03-22T21:34:43.071Z,6.73
2018-03-22T21:37:10.721Z,6.71
2018-03-22T21:39:38.357Z,6.73
2018-03-22T21:42:06.939Z,6.72
2018-03-22T21:44:34.553Z,6.72
2018-03-22T21:47:14.342Z,6.72
2018-03-22T21:49:41.947Z,6.73
2018-03-22T21:52:21.392Z,6.72
2018-03-22T21:54:49.432Z,6.73
2018-03-22T21:57:17.101Z,6.75
2018-03-22T21:59:44.971Z,6.73
2018-03-22T22:02:13.012Z,6.75
2018-03-22T22:04:40.732Z,6.73
2018-03-22T22:07:08.785Z,6.71
2018-03-22T22:09:37.032Z,6.71
2018-03-22T22:12:04.749Z,6.72
2018-03-22T22:14:32.580Z,6.75
2018-03-22T22:17:00.557Z,6.74
2018-03-22T22:19:28.228Z,6.73
2018-03-22T22:21:55.825Z,6.72
2018-03-22T22:24:23.467Z,6.70
2018-03-22T22:26:51.128Z,6.68
2018-03-22T22:29:18.841Z,6.71
2018-03-22T22:31:46.483Z,6.70
2018-03-22T22:34:14.094Z,6.64
2018-03-22T22:36:41.948Z,6.68
2018-03-22T22:39:09.675Z,6.64
2018-03-22T22:41:37.395Z,6.64
2018-03-22T22:44:05.186Z,6.60
2018-03-22T22:46:32.800Z,6.60
2018-03-22T22:49:00.380Z,6.61
2018-03-22T22:51:28.484Z,6.62
2018-03-22T22:53:56.189Z,6.60
2018-03-22T22:56:23.935Z,6.59
2018-03-22T22:58:51.584Z,6.57
2018-03-22T23:01:19.247Z,6.55
2018-03-22T23:03:46.895Z,6.52
2018-03-22T23:06:14.625Z,6.47
2018-03-22T23:08:42.442Z,6.47
2018-03-22T23:11:10.030Z,6.43
2018-03-22T23:13:38.079Z,6.39
2018-03-22T23:16:05.658Z,6.34
2018-03-22T23:18:33.872Z,6.32
2018-03-22T23:21:02.204Z,6.30
2018-03-22T23:23:30.238Z,6.29
2018-03-22T23:25:58.189Z,6.26
2018-03-22T23:28:26.123Z,6.22
2018-03-22T23:30:54.371Z,6.21
2018-03-22T23:33:21.992Z,6.20
2018-03-22T23:35:49.721Z,6.19
2018-03-22T23:38:17.402Z,6.19
2018-03-22T23:40:45.049Z,6.14
2018-03-22T23:43:12.681Z,6.12
2018-03-22T23:45:40.509Z,6.11
2018-03-22T23:48:08.467Z,6.08
2018-03-22T23:50:36.700Z,6.09
2018-03-22T23:53:04.298Z,6.08
2018-03-22T23:55:31.910Z,6.06
2018-03-22T23:57:59.935Z,6.07
